Dawson, North Dakota
Current Conditions -  °F | °C
As of 3:52 AM on Sunday 26 Oct 2014 (Local Time) from KBIS Reporting Station
Clear Clear  
Wind Chill:   Ceiling: Unl
Heat Index:   Visibility: 10mi
Dew Point: -1°   Wind: 10mph
Humidity: 52%   Direction: 130°SE
Pressure: 29.77"   Gusts: NA
Location:  46.87°N, 99.75°W
Report Text: KBIS 260852Z AUTO 13009KT 10SM CLR 09/M01 A2977 RMK AO2 PRESFR SLP084 T00891006 58031
Loading
Personal Weather Stations






























Interactive Weather Map
Tropical Storm Tracking
New forecast layout! Learn more

10-Day Weather Forecast

Advertisements
Track Severe Weather on mobile